Albion, Idaho
Current Conditions -  °F | °C
As of 2:53 AM on Friday 24 Oct 2014 (Local Time) from KBYI Reporting Station
Few Clouds Few Clouds  
Wind Chill: 48°   Ceiling: Unl
Heat Index: 48°   Visibility: 10mi
Dew Point: 40°   Wind: 3mph
Humidity: 74%   Direction: 210°SSW
Pressure: 30.12"   Gusts: NA
Location:  42.41°N, 113.58°W
Report Text: KBYI 240853Z AUTO 21003KT 10SM FEW110 09/04 A3012 RMK AO2 SLP180 T00890044 53003
Loading
Personal Weather Stations






























Interactive Weather Map
Tropical Storm Tracking
New forecast layout! Learn more

10-Day Weather Forecast

Advertisements
Track Severe Weather on mobile